createdAt,value
2023-01-28T00:01:20.381Z,-5.78
2023-01-28T00:03:51.087Z,-5.74
2023-01-28T00:06:18.303Z,-5.72
2023-01-28T00:08:45.381Z,-5.71
2023-01-28T00:11:13.762Z,-5.90
2023-01-28T00:13:41.110Z,-5.87
2023-01-28T00:16:09.147Z,-5.91
2023-01-28T00:18:36.499Z,-6.05
2023-01-28T00:21:07.688Z,-5.80
2023-01-28T00:23:36.971Z,-5.77
2023-01-28T00:26:15.180Z,-5.90
2023-01-28T00:28:44.896Z,-5.90
2023-01-28T00:31:23.371Z,-5.88
2023-01-28T00:33:51.877Z,-5.90
2023-01-28T00:36:20.541Z,-5.99
2023-01-28T00:39:06.856Z,-6.12
2023-01-28T00:41:34.648Z,-5.99
2023-01-28T00:44:01.465Z,-5.98
2023-01-28T00:46:29.443Z,-6.04
2023-01-28T00:48:56.554Z,-5.93
2023-01-28T00:51:23.602Z,-6.01
2023-01-28T00:53:50.913Z,-6.04
2023-01-28T00:56:18.831Z,-6.18
2023-01-28T00:58:46.057Z,-6.11
2023-01-28T01:01:18.917Z,-6.05
2023-01-28T01:03:46.806Z,-6.06
2023-01-28T01:06:15.989Z,-6.12
2023-01-28T01:08:43.322Z,-6.05
2023-01-28T01:11:11.701Z,-6.15
2023-01-28T01:13:39.145Z,-6.43
2023-01-28T01:16:09.756Z,-6.38
2023-01-28T01:18:38.040Z,-6.37
2023-01-28T01:21:12.055Z,-6.50
2023-01-28T01:23:39.836Z,-6.40
2023-01-28T01:26:07.754Z,-6.45
2023-01-28T01:28:35.162Z,-6.36
2023-01-28T01:31:08.318Z,-6.41
2023-01-28T01:33:35.865Z,-6.55
2023-01-28T01:36:03.061Z,-6.43
2023-01-28T01:38:30.190Z,-6.44
2023-01-28T01:41:01.295Z,-6.54
2023-01-28T01:43:53.057Z,-6.49
2023-01-28T01:46:43.831Z,-6.60
2023-01-28T01:49:21.947Z,-6.50
2023-01-28T01:52:10.447Z,-6.47
2023-01-28T01:54:41.634Z,-6.41
2023-01-28T01:57:13.547Z,-6.42
2023-01-28T01:59:43.492Z,-6.35
2023-01-28T02:02:11.779Z,-6.34
2023-01-28T02:04:44.470Z,-6.43
2023-01-28T02:07:16.924Z,-6.44
2023-01-28T02:09:44.098Z,-6.37
2023-01-28T02:12:21.484Z,-6.35
2023-01-28T02:14:59.265Z,-6.28
2023-01-28T02:17:26.930Z,-6.24
2023-01-28T02:19:59.219Z,-6.27
2023-01-28T02:22:42.080Z,-6.37
2023-01-28T02:25:39.774Z,-6.26
2023-01-28T02:28:30.045Z,-6.24
2023-01-28T02:31:18.210Z,-6.23
2023-01-28T02:33:51.118Z,-6.26
2023-01-28T02:36:23.707Z,-6.13
2023-01-28T02:38:55.212Z,-6.23
2023-01-28T02:41:34.590Z,-6.32
2023-01-28T02:44:03.326Z,-6.21
2023-01-28T02:46:30.227Z,-6.25
2023-01-28T02:48:57.668Z,-6.27
2023-01-28T02:51:40.546Z,-6.35
2023-01-28T02:54:17.971Z,-6.30
2023-01-28T02:57:23.379Z,-6.35
2023-01-28T03:00:12.159Z,-6.35
2023-01-28T03:03:12.054Z,-6.27
2023-01-28T03:05:45.358Z,-6.18
2023-01-28T03:08:12.927Z,-6.25
2023-01-28T03:10:40.052Z,-6.25
2023-01-28T03:13:07.383Z,-6.27
2023-01-28T03:15:47.664Z,-6.45
2023-01-28T03:18:24.835Z,-6.22
2023-01-28T03:21:02.707Z,-6.32
2023-01-28T03:23:38.956Z,-6.30
2023-01-28T03:26:09.193Z,-6.49
2023-01-28T03:28:39.187Z,-6.26
2023-01-28T03:31:16.051Z,-6.49
2023-01-28T03:33:52.915Z,-6.56
2023-01-28T03:36:20.682Z,-6.36
2023-01-28T03:38:47.805Z,-6.28
2023-01-28T03:41:24.440Z,-6.19
2023-01-28T03:43:53.300Z,-6.07
2023-01-28T03:46:20.503Z,-6.04
2023-01-28T03:48:47.803Z,-6.05
2023-01-28T03:51:15.710Z,-6.08
2023-01-28T03:53:42.640Z,-6.06
2023-01-28T03:56:10.679Z,-6.09
2023-01-28T03:58:39.937Z,-6.07
2023-01-28T04:01:06.895Z,-6.05
2023-01-28T04:03:33.837Z,-6.13
2023-01-28T04:06:09.800Z,-6.06
2023-01-28T04:08:55.344Z,-6.01
2023-01-28T04:12:00.603Z,-5.98
2023-01-28T04:14:33.503Z,-5.96
2023-01-28T04:17:07.841Z,-6.15
2023-01-28T04:19:37.071Z,-5.88
2023-01-28T04:22:11.152Z,-5.82
2023-01-28T04:24:39.977Z,-5.73
2023-01-28T04:27:06.891Z,-5.74
2023-01-28T04:29:33.874Z,-5.64
2023-01-28T04:32:19.341Z,-5.67
2023-01-28T04:35:03.786Z,-5.49
2023-01-28T04:37:56.705Z,-5.40
2023-01-28T04:40:31.843Z,-5.56
2023-01-28T04:43:04.349Z,-5.49
2023-01-28T04:45:51.777Z,-5.61
2023-01-28T04:48:30.591Z,-5.59
2023-01-28T04:51:36.078Z,-5.54
2023-01-28T04:54:25.946Z,-5.44
2023-01-28T04:56:56.468Z,-5.50
2023-01-28T04:59:24.357Z,-5.58
2023-01-28T05:01:52.015Z,-5.46
2023-01-28T05:04:19.612Z,-5.56
2023-01-28T05:06:47.197Z,-5.55
2023-01-28T05:09:17.111Z,-5.50
2023-01-28T05:11:44.488Z,-5.56
2023-01-28T05:14:11.583Z,-5.65
2023-01-28T05:16:50.507Z,-5.47
2023-01-28T05:19:18.600Z,-5.46
2023-01-28T05:21:46.810Z,-5.59
2023-01-28T05:24:31.984Z,-5.42
2023-01-28T05:26:59.127Z,-5.31
2023-01-28T05:29:26.672Z,-5.25
2023-01-28T05:31:53.847Z,-5.11
2023-01-28T05:34:20.987Z,-5.03
2023-01-28T05:36:48.227Z,-4.96
2023-01-28T05:39:35.402Z,-4.94
2023-01-28T05:42:02.630Z,-4.82
2023-01-28T05:44:30.496Z,-4.93
2023-01-28T05:47:16.729Z,-4.80
2023-01-28T05:49:48.619Z,-4.61
2023-01-28T05:52:34.048Z,-4.52
2023-01-28T05:55:02.166Z,-4.56
2023-01-28T05:57:29.046Z,-4.55
2023-01-28T05:59:56.127Z,-4.49
2023-01-28T06:02:23.185Z,-4.54
2023-01-28T06:04:53.798Z,-4.53
2023-01-28T06:07:20.847Z,-4.27
2023-01-28T06:09:48.520Z,-4.40
2023-01-28T06:12:19.728Z,-4.37
2023-01-28T06:15:04.126Z,-4.30
2023-01-28T06:17:54.156Z,-4.41
2023-01-28T06:20:27.296Z,-4.24
2023-01-28T06:22:56.697Z,-4.09
2023-01-28T06:25:24.054Z,-4.05
2023-01-28T06:27:51.099Z,-3.90
2023-01-28T06:30:20.023Z,-3.89
2023-01-28T06:32:47.127Z,-3.73
2023-01-28T06:35:14.074Z,-3.74
2023-01-28T06:37:40.994Z,-3.65
2023-01-28T06:40:09.019Z,-3.52
2023-01-28T06:42:35.943Z,-3.31
2023-01-28T06:45:02.876Z,-3.23
2023-01-28T06:47:29.809Z,-3.16
2023-01-28T06:49:57.082Z,-3.22
2023-01-28T06:52:24.090Z,-3.33
2023-01-28T06:54:51.001Z,-3.27
2023-01-28T06:57:17.917Z,-3.34
2023-01-28T06:59:44.826Z,-3.15
2023-01-28T07:02:12.292Z,-3.13
2023-01-28T07:04:39.244Z,-3.38
2023-01-28T07:07:06.095Z,-3.16
2023-01-28T07:09:32.933Z,-3.21
2023-01-28T07:11:59.820Z,-3.44
2023-01-28T07:14:26.711Z,-3.36
2023-01-28T07:16:53.592Z,-3.46
2023-01-28T07:19:20.487Z,-3.32
2023-01-28T07:21:47.539Z,-3.74
2023-01-28T07:24:14.618Z,-3.48
2023-01-28T07:26:41.591Z,-3.22
2023-01-28T07:29:09.311Z,-3.27
2023-01-28T07:31:36.309Z,-3.16
2023-01-28T07:34:03.230Z,-2.75
2023-01-28T07:36:30.101Z,-2.89
2023-01-28T07:38:57.010Z,-2.70
2023-01-28T07:41:23.916Z,-2.75
2023-01-28T07:43:50.788Z,-2.73
2023-01-28T07:46:17.657Z,-2.94
2023-01-28T07:48:44.560Z,-2.92
2023-01-28T07:51:12.076Z,-2.59
2023-01-28T07:53:39.306Z,-2.54
2023-01-28T07:56:06.445Z,-2.63
2023-01-28T07:58:33.395Z,-2.30
2023-01-28T08:01:01.350Z,-2.44
2023-01-28T08:03:29.044Z,-2.56
2023-01-28T08:05:56.974Z,-2.35
2023-01-28T08:08:25.169Z,-2.28
2023-01-28T08:10:52.488Z,-2.33
2023-01-28T08:13:19.898Z,-2.08
2023-01-28T08:15:47.255Z,-1.73
2023-01-28T08:18:15.971Z,-1.67
2023-01-28T08:20:48.798Z,-1.43
2023-01-28T08:23:20.287Z,-1.40
2023-01-28T08:25:48.030Z,-1.00
2023-01-28T08:28:16.796Z,-1.01
2023-01-28T08:30:44.202Z,-0.98
2023-01-28T08:33:12.933Z,-0.75
2023-01-28T08:35:40.093Z,-0.94
2023-01-28T08:38:08.180Z,-1.01
2023-01-28T08:40:37.430Z,-0.97
2023-01-28T08:43:04.637Z,-0.93
2023-01-28T08:45:32.406Z,-1.26
2023-01-28T08:48:07.301Z,-1.40
2023-01-28T08:50:38.604Z,-1.30
2023-01-28T08:53:08.686Z,-1.37
2023-01-28T08:55:35.857Z,-1.23
2023-01-28T08:58:05.227Z,-1.09
2023-01-28T09:00:32.905Z,-1.01
2023-01-28T09:02:59.792Z,-0.90
2023-01-28T09:05:26.867Z,-0.56
2023-01-28T09:07:53.770Z,-0.54
2023-01-28T09:10:20.688Z,-0.49
2023-01-28T09:12:47.767Z,-0.45
2023-01-28T09:15:14.645Z,-0.49
2023-01-28T09:17:41.572Z,-0.73
2023-01-28T09:20:09.189Z,-0.31
2023-01-28T09:22:36.004Z,-0.23
2023-01-28T09:25:03.126Z,-0.22
2023-01-28T09:27:30.073Z,-0.53
2023-01-28T09:29:57.182Z,-0.51
2023-01-28T09:32:24.086Z,-0.29
2023-01-28T09:34:51.275Z,-0.65
2023-01-28T09:37:18.141Z,-0.46
2023-01-28T09:39:45.039Z,-0.84
2023-01-28T09:42:53.155Z,-0.81
2023-01-28T09:45:28.556Z,-0.95
2023-01-28T09:48:02.011Z,-1.65
2023-01-28T09:50:42.266Z,-1.32
2023-01-28T09:53:36.367Z,-1.94
2023-01-28T09:56:13.398Z,-1.50
2023-01-28T09:58:42.572Z,-1.40
2023-01-28T10:01:21.930Z,-0.95
2023-01-28T10:04:15.033Z,-1.19
2023-01-28T10:07:18.639Z,-0.99
2023-01-28T10:09:51.731Z,-1.30
2023-01-28T10:12:39.054Z,-1.58
2023-01-28T10:15:27.756Z,-1.44
2023-01-28T10:18:16.095Z,-1.46
2023-01-28T10:20:55.679Z,-1.30
2023-01-28T10:23:39.227Z,-1.62
2023-01-28T10:26:18.782Z,-1.42
2023-01-28T10:28:51.133Z,-1.62
2023-01-28T10:31:18.271Z,-1.87
2023-01-28T10:33:45.189Z,-1.62
2023-01-28T10:36:12.455Z,-1.67
2023-01-28T10:38:39.872Z,-1.76
2023-01-28T10:41:08.906Z,-1.43
2023-01-28T10:43:39.109Z,-1.36
2023-01-28T10:46:23.809Z,-1.77
2023-01-28T10:49:09.847Z,-1.59
2023-01-28T10:51:39.876Z,-1.77
2023-01-28T10:54:20.748Z,-1.51
2023-01-28T10:56:50.507Z,-1.19
2023-01-28T10:59:22.526Z,-0.96
2023-01-28T11:01:53.589Z,-0.64
2023-01-28T11:04:28.209Z,-1.00
2023-01-28T11:07:04.456Z,-1.26
2023-01-28T11:09:34.657Z,-0.70
2023-01-28T11:12:19.636Z,-0.58
2023-01-28T11:14:55.422Z,-0.48
2023-01-28T11:17:25.276Z,-1.03
2023-01-28T11:19:54.360Z,-0.89
2023-01-28T11:22:21.243Z,-0.77
2023-01-28T11:24:48.207Z,-0.83
2023-01-28T11:27:23.925Z,-0.94
2023-01-28T11:29:51.368Z,-0.75
2023-01-28T11:32:26.204Z,-0.34
2023-01-28T11:34:55.700Z,-0.88
2023-01-28T11:37:24.014Z,-1.12
2023-01-28T11:40:20.576Z,-0.98
2023-01-28T11:42:51.849Z,-1.19
2023-01-28T11:45:43.167Z,-1.39
2023-01-28T11:48:46.333Z,-1.38
2023-01-28T11:51:22.265Z,-1.18
2023-01-28T11:54:07.123Z,-1.10
2023-01-28T11:56:43.461Z,-0.81
2023-01-28T11:59:28.468Z,-0.56
2023-01-28T12:02:09.882Z,-0.65
2023-01-28T12:05:04.801Z,-0.98
2023-01-28T12:08:04.131Z,-0.90
2023-01-28T12:10:47.660Z,-0.88
2023-01-28T12:13:49.780Z,-0.86
2023-01-28T12:16:34.725Z,-0.82
2023-01-28T12:19:29.613Z,-0.60
2023-01-28T12:22:15.212Z,-0.92
2023-01-28T12:25:04.069Z,-0.81
2023-01-28T12:27:46.514Z,-0.87
2023-01-28T12:30:29.202Z,-0.71
2023-01-28T12:33:17.660Z,-0.92
2023-01-28T12:35:56.841Z,-0.87
2023-01-28T12:38:53.072Z,-0.87
2023-01-28T12:41:25.199Z,-0.86
2023-01-28T12:44:00.668Z,-0.73
2023-01-28T12:46:53.474Z,-0.92
2023-01-28T12:49:42.691Z,-1.20
2023-01-28T12:52:09.614Z,-1.29
2023-01-28T12:55:14.275Z,-1.55
2023-01-28T12:57:41.961Z,-1.73
2023-01-28T13:00:33.818Z,-1.86
2023-01-28T13:03:28.444Z,-1.99
2023-01-28T13:06:03.249Z,-2.14
2023-01-28T13:08:30.674Z,-2.26
2023-01-28T13:11:00.929Z,-2.19
2023-01-28T13:13:37.880Z,-2.23
2023-01-28T13:16:07.873Z,-2.31
2023-01-28T13:18:46.396Z,-2.48
2023-01-28T13:21:25.487Z,-2.45
2023-01-28T13:24:07.010Z,-2.45
2023-01-28T13:26:46.429Z,-2.64
2023-01-28T13:29:25.541Z,-2.60
2023-01-28T13:31:55.819Z,-2.67
2023-01-28T13:34:32.417Z,-2.78
2023-01-28T13:37:19.074Z,-2.86
2023-01-28T13:39:49.787Z,-2.97
2023-01-28T13:42:23.353Z,-3.02
2023-01-28T13:44:51.373Z,-3.06
2023-01-28T13:47:34.099Z,-3.08
2023-01-28T13:50:48.474Z,-3.04
2023-01-28T13:53:37.498Z,-3.05
2023-01-28T13:56:10.694Z,-3.29
2023-01-28T13:58:44.614Z,-3.33
2023-01-28T14:01:14.894Z,-3.48
2023-01-28T14:03:44.836Z,-3.47
2023-01-28T14:06:22.528Z,-3.50
2023-01-28T14:09:12.017Z,-3.66
2023-01-28T14:12:30.255Z,-3.48
2023-01-28T14:15:19.076Z,-3.73
2023-01-28T14:17:47.878Z,-3.75
2023-01-28T14:20:19.296Z,-3.77
2023-01-28T14:22:47.644Z,-3.84
2023-01-28T14:25:22.781Z,-4.11
2023-01-28T14:27:54.077Z,-4.20
2023-01-28T14:30:57.086Z,-4.20
2023-01-28T14:33:24.319Z,-4.27
2023-01-28T14:35:52.097Z,-4.10
2023-01-28T14:38:21.989Z,-4.14
2023-01-28T14:40:54.760Z,-4.01
2023-01-28T14:43:25.179Z,-3.95
2023-01-28T14:46:00.581Z,-3.99
2023-01-28T14:48:49.032Z,-4.14
2023-01-28T14:51:34.773Z,-3.90
2023-01-28T14:54:13.895Z,-3.79
2023-01-28T14:56:49.928Z,-3.75
2023-01-28T14:59:46.398Z,-3.54
2023-01-28T15:02:20.034Z,-3.60
2023-01-28T15:04:47.051Z,-3.72
2023-01-28T15:07:28.007Z,-3.75
2023-01-28T15:10:03.596Z,-3.60
2023-01-28T15:12:35.874Z,-3.59
2023-01-28T15:15:28.951Z,-3.58
2023-01-28T15:18:02.568Z,-3.44
2023-01-28T15:20:30.595Z,-3.58
2023-01-28T15:22:57.735Z,-3.66
2023-01-28T15:25:29.073Z,-3.77
2023-01-28T15:28:00.490Z,-3.52
2023-01-28T15:30:31.842Z,-3.43
2023-01-28T15:33:13.190Z,-3.47
2023-01-28T15:35:47.923Z,-3.37
2023-01-28T15:38:15.006Z,-3.25
2023-01-28T15:40:48.934Z,-3.55
2023-01-28T15:43:34.991Z,-3.64
2023-01-28T15:46:02.732Z,-3.70
2023-01-28T15:48:32.520Z,-3.49
2023-01-28T15:51:03.709Z,-3.41
2023-01-28T15:53:45.477Z,-3.46
2023-01-28T15:56:14.960Z,-3.43
2023-01-28T15:58:43.239Z,-3.70
2023-01-28T16:01:10.652Z,-3.71
2023-01-28T16:03:38.944Z,-4.14
2023-01-28T16:06:19.648Z,-3.81
2023-01-28T16:08:58.211Z,-3.95
2023-01-28T16:11:27.322Z,-3.64
2023-01-28T16:13:55.715Z,-3.86
2023-01-28T16:16:30.323Z,-3.82
2023-01-28T16:18:57.853Z,-4.08
2023-01-28T16:21:30.205Z,-3.90
2023-01-28T16:24:06.808Z,-3.73
2023-01-28T16:26:35.890Z,-3.72
2023-01-28T16:29:16.125Z,-3.87
2023-01-28T16:31:43.257Z,-4.16
2023-01-28T16:34:12.972Z,-3.87
2023-01-28T16:36:39.938Z,-3.97
2023-01-28T16:39:06.977Z,-3.88
2023-01-28T16:41:40.094Z,-3.79
2023-01-28T16:44:07.335Z,-3.88
2023-01-28T16:46:34.267Z,-3.95
2023-01-28T16:49:01.665Z,-3.87
2023-01-28T16:51:28.752Z,-3.74
2023-01-28T16:53:56.261Z,-3.62
2023-01-28T16:56:45.536Z,-3.72
2023-01-28T16:59:14.645Z,-3.56
2023-01-28T17:01:42.018Z,-3.62
2023-01-28T17:04:12.030Z,-3.66
2023-01-28T17:06:41.268Z,-3.68
2023-01-28T17:09:08.722Z,-3.67
2023-01-28T17:11:35.883Z,-3.83
2023-01-28T17:14:03.364Z,-3.73
2023-01-28T17:16:30.453Z,-3.82
2023-01-28T17:18:57.393Z,-3.74
2023-01-28T17:21:24.376Z,-3.66
2023-01-28T17:23:51.317Z,-4.04
2023-01-28T17:26:18.276Z,-4.03
2023-01-28T17:28:45.129Z,-3.99
2023-01-28T17:31:14.248Z,-3.89
2023-01-28T17:33:41.741Z,-3.83
2023-01-28T17:36:09.460Z,-4.02
2023-01-28T17:38:36.509Z,-4.12
2023-01-28T17:41:06.599Z,-4.10
2023-01-28T17:43:34.220Z,-4.03
2023-01-28T17:46:01.581Z,-4.16
2023-01-28T17:48:28.749Z,-4.32
2023-01-28T17:50:58.610Z,-4.28
2023-01-28T17:53:25.468Z,-4.20
2023-01-28T17:55:52.383Z,-4.31
2023-01-28T17:58:19.396Z,-4.38
2023-01-28T18:00:46.348Z,-4.52
2023-01-28T18:03:14.416Z,-4.32
2023-01-28T18:05:41.999Z,-4.44
2023-01-28T18:08:09.595Z,-4.29
2023-01-28T18:10:39.191Z,-4.31
2023-01-28T18:13:06.191Z,-4.42
2023-01-28T18:15:33.120Z,-4.42
2023-01-28T18:18:00.162Z,-4.51
2023-01-28T18:20:27.239Z,-4.27
2023-01-28T18:22:54.149Z,-4.15
2023-01-28T18:25:21.119Z,-4.25
2023-01-28T18:27:48.089Z,-4.31
2023-01-28T18:30:16.759Z,-4.44
2023-01-28T18:32:43.883Z,-4.43
2023-01-28T18:35:12.447Z,-4.31
2023-01-28T18:37:40.238Z,-4.39
2023-01-28T18:40:07.599Z,-4.58
2023-01-28T18:42:34.969Z,-4.64
2023-01-28T18:45:01.839Z,-4.57
2023-01-28T18:47:28.722Z,-4.77
2023-01-28T18:49:55.616Z,-5.13
2023-01-28T18:52:22.687Z,-5.40
2023-01-28T18:54:49.639Z,-5.03
2023-01-28T18:57:17.343Z,-4.99
2023-01-28T18:59:47.489Z,-5.07
2023-01-28T19:02:24.608Z,-4.90
2023-01-28T19:04:55.810Z,-5.28
2023-01-28T19:07:22.725Z,-5.02
2023-01-28T19:09:49.991Z,-5.41
2023-01-28T19:12:17.031Z,-5.19
2023-01-28T19:14:43.995Z,-5.17
2023-01-28T19:17:11.059Z,-5.11
2023-01-28T19:19:38.254Z,-5.38
2023-01-28T19:22:05.641Z,-5.45
2023-01-28T19:24:32.802Z,-5.72
2023-01-28T19:26:59.792Z,-5.51
2023-01-28T19:29:26.735Z,-5.45
2023-01-28T19:31:53.730Z,-5.50
2023-01-28T19:34:20.760Z,-5.53
2023-01-28T19:36:47.648Z,-5.61
2023-01-28T19:39:15.551Z,-5.78
2023-01-28T19:41:42.578Z,-5.75
2023-01-28T19:44:10.387Z,-5.58
2023-01-28T19:46:37.433Z,-5.72
2023-01-28T19:49:05.115Z,-5.78
2023-01-28T19:51:32.036Z,-6.14
2023-01-28T19:54:01.557Z,-5.92
2023-01-28T19:56:28.632Z,-5.93
2023-01-28T19:58:55.851Z,-6.18
2023-01-28T20:01:29.948Z,-5.95
2023-01-28T20:03:59.577Z,-6.27
2023-01-28T20:06:29.020Z,-6.32
2023-01-28T20:09:08.676Z,-6.43
2023-01-28T20:11:36.257Z,-6.32
2023-01-28T20:14:03.116Z,-6.34
2023-01-28T20:16:33.327Z,-6.30
2023-01-28T20:19:02.413Z,-6.29
2023-01-28T20:21:30.481Z,-6.30
2023-01-28T20:23:59.546Z,-6.46
2023-01-28T20:26:30.412Z,-6.53
2023-01-28T20:29:01.127Z,-6.57
2023-01-28T20:31:28.173Z,-6.43
2023-01-28T20:33:55.369Z,-6.49
2023-01-28T20:36:22.308Z,-6.48
2023-01-28T20:38:49.214Z,-6.77
2023-01-28T20:41:18.791Z,-6.27
2023-01-28T20:43:47.523Z,-6.63
2023-01-28T20:46:35.115Z,-6.49
2023-01-28T20:49:02.909Z,-6.64
2023-01-28T20:51:33.416Z,-6.75
2023-01-28T20:54:02.450Z,-6.90
2023-01-28T20:56:29.719Z,-7.00
2023-01-28T20:59:01.764Z,-7.00
2023-01-28T21:01:31.911Z,-7.24
2023-01-28T21:03:58.908Z,-6.85
2023-01-28T21:06:26.302Z,-6.81
2023-01-28T21:08:53.284Z,-6.52
2023-01-28T21:11:22.189Z,-6.92
2023-01-28T21:13:49.348Z,-7.05
2023-01-28T21:16:17.172Z,-7.03
2023-01-28T21:18:44.142Z,-7.42
2023-01-28T21:21:20.793Z,-7.42
2023-01-28T21:23:48.540Z,-7.30
2023-01-28T21:26:15.788Z,-7.24
2023-01-28T21:28:45.008Z,-7.53
2023-01-28T21:31:15.663Z,-7.57
2023-01-28T21:33:43.430Z,-7.52
2023-01-28T21:36:13.202Z,-7.32
2023-01-28T21:38:40.503Z,-7.47
2023-01-28T21:41:09.193Z,-7.54
2023-01-28T21:43:36.658Z,-7.88
2023-01-28T21:46:04.257Z,-7.59
2023-01-28T21:48:31.177Z,-7.41
2023-01-28T21:51:04.865Z,-7.42
2023-01-28T21:53:31.811Z,-7.47
2023-01-28T21:55:58.763Z,-7.49
2023-01-28T21:58:25.692Z,-7.54
2023-01-28T22:00:52.558Z,-7.45
2023-01-28T22:03:19.473Z,-7.30
2023-01-28T22:05:54.683Z,-7.44
2023-01-28T22:08:21.649Z,-7.51
2023-01-28T22:10:48.518Z,-7.50
2023-01-28T22:13:15.411Z,-7.77
2023-01-28T22:15:42.317Z,-7.52
2023-01-28T22:18:09.259Z,-7.61
2023-01-28T22:20:36.148Z,-7.64
2023-01-28T22:23:03.092Z,-7.60
2023-01-28T22:25:30.033Z,-7.79
2023-01-28T22:27:57.086Z,-7.77
2023-01-28T22:30:23.964Z,-7.82
2023-01-28T22:32:50.927Z,-7.82
2023-01-28T22:35:17.839Z,-7.92
2023-01-28T22:37:44.836Z,-7.92
2023-01-28T22:40:12.197Z,-7.84
2023-01-28T22:42:39.201Z,-7.70
2023-01-28T22:45:06.732Z,-7.55
2023-01-28T22:47:33.746Z,-7.91
2023-01-28T22:50:00.613Z,-7.91
2023-01-28T22:52:27.495Z,-7.86
2023-01-28T22:54:54.310Z,-7.88
2023-01-28T22:57:21.377Z,-7.91
2023-01-28T22:59:59.483Z,-8.00
2023-01-28T23:02:27.289Z,-8.13
2023-01-28T23:04:54.222Z,-8.12
2023-01-28T23:07:21.174Z,-8.49
2023-01-28T23:09:48.023Z,-8.42
2023-01-28T23:12:14.897Z,-8.22
2023-01-28T23:14:41.804Z,-8.29
2023-01-28T23:17:11.547Z,-8.29
2023-01-28T23:19:38.497Z,-8.26
2023-01-28T23:22:05.408Z,-9.00
2023-01-28T23:24:33.488Z,-8.77
2023-01-28T23:27:01.203Z,-9.28
2023-01-28T23:29:29.541Z,-8.91
2023-01-28T23:32:02.803Z,-8.95
2023-01-28T23:34:35.375Z,-9.02
2023-01-28T23:37:04.085Z,-9.16
2023-01-28T23:39:31.290Z,-9.40
2023-01-28T23:41:58.374Z,-9.04
2023-01-28T23:44:27.088Z,-9.00
2023-01-28T23:46:54.714Z,-9.03
2023-01-28T23:49:21.605Z,-8.98
2023-01-28T23:51:48.620Z,-9.22
2023-01-28T23:54:15.453Z,-9.06
2023-01-28T23:56:42.348Z,-9.13
2023-01-28T23:59:09.515Z,-9.05
